Etusivu
METAR-TAF:

METAR-TAF

Lentoasemat :

Jackson, Mississippi, Yhdysvallat

Leveyspiiri: 32-19-11N, Pituuspiiri: 090-04-39W, korkeus merenpinnasta: 105 m

Tämänhetkinen sää

Tämä raportti tehtiin 15 minuuttia sitten, kello 09.54 UTC
tyyntä
Lämpötila -3°C
Kosteus 80%
Ilmanpaine 1029 hPa
Näkyvyys: 16.1 km
selkeää

METAR: KJAN 200954Z AUTO 00000KT 10SM CLR M03/M06 A3040 RMK AO2 SLP295 T10331061

Aika: 05:09 (10:09 UTC)

Sääennuste

Tämä raportti tehtiin 4 tuntia ja 43 minuuttia sitten, kello 05.26 UTC
Ennuste voimassa 20. päivästä klo 06 UTC - 21. päivään klo 06 UTC
Tuuli 3 kn idästä/koillisesta
Näkyvyys: 10 km
Muutamia pilviä 25000 ft:n korkeudessa

TAF: KJAN 200526Z 2006/2106 06003KT P6SM FEW250

Säähavainnot ja -ennusteet yli 4000 lentoasemalta (METAR- ja TAF-raportit).

Käytössä olevat sääasemat on merkitty karttaan keltaisilla ja punaisilla pisteillä.

Aseta hiiri pisteen päälle nähdäksesi sääaseman nimen.

Klikkaa sitten nähdäksesi säähavainnot ja -ennusteet.

Kartan vaihtaminen: klikkaa mustalla rastilla varustettuja vihreitä pisteitä, niin voit zoomata sisään; viivalla varustettua vihreää pistettä, niin voit zoomata ulos tai vihreitä nuolia, niin pääset viereisille kartoille.


METAR-TAF: